sensor_id;sensor_type;location;lat;lon;timestamp;P1;durP1;ratioP1;P2;durP2;ratioP2
66169;SDS011;66757;44.024;20.456;2023-04-25T00:02:23;8.75;;;5.00;;
66169;SDS011;66757;44.024;20.456;2023-04-25T00:04:49;5.20;;;3.92;;
66169;SDS011;66757;44.024;20.456;2023-04-25T00:07:14;11.02;;;5.43;;
66169;SDS011;66757;44.024;20.456;2023-04-25T00:09:40;8.10;;;5.35;;
66169;SDS011;66757;44.024;20.456;2023-04-25T00:12:06;6.88;;;4.53;;
66169;SDS011;66757;44.024;20.456;2023-04-25T00:14:31;7.75;;;4.50;;
66169;SDS011;66757;44.024;20.456;2023-04-25T00:16:59;7.13;;;5.30;;
66169;SDS011;66757;44.024;20.456;2023-04-25T00:19:24;7.15;;;4.80;;
66169;SDS011;66757;44.024;20.456;2023-04-25T00:21:52;6.93;;;4.55;;
66169;SDS011;66757;44.024;20.456;2023-04-25T00:24:19;6.47;;;4.60;;
66169;SDS011;66757;44.024;20.456;2023-04-25T00:26:44;6.80;;;4.90;;
66169;SDS011;66757;44.024;20.456;2023-04-25T00:29:09;5.68;;;4.32;;
66169;SDS011;66757;44.024;20.456;2023-04-25T00:31:35;7.28;;;4.50;;
66169;SDS011;66757;44.024;20.456;2023-04-25T00:34:00;6.07;;;4.07;;
66169;SDS011;66757;44.024;20.456;2023-04-25T00:36:26;9.02;;;4.90;;
66169;SDS011;66757;44.024;20.456;2023-04-25T00:41:42;8.07;;;4.28;;
66169;SDS011;66757;44.024;20.456;2023-04-25T00:44:08;7.15;;;4.68;;
66169;SDS011;66757;44.024;20.456;2023-04-25T00:46:35;10.02;;;5.60;;
66169;SDS011;66757;44.024;20.456;2023-04-25T00:49:01;14.40;;;6.43;;
66169;SDS011;66757;44.024;20.456;2023-04-25T00:51:26;8.35;;;5.10;;
66169;SDS011;66757;44.024;20.456;2023-04-25T00:53:52;5.97;;;3.25;;
66169;SDS011;66757;44.024;20.456;2023-04-25T00:56:18;7.03;;;3.47;;
66169;SDS011;66757;44.024;20.456;2023-04-25T00:58:43;3.13;;;2.45;;
66169;SDS011;66757;44.024;20.456;2023-04-25T01:01:08;3.72;;;2.40;;
66169;SDS011;66757;44.024;20.456;2023-04-25T01:03:35;4.80;;;2.90;;
66169;SDS011;66757;44.024;20.456;2023-04-25T01:06:05;2.60;;;2.38;;
66169;SDS011;66757;44.024;20.456;2023-04-25T01:08:32;2.72;;;2.53;;
66169;SDS011;66757;44.024;20.456;2023-04-25T01:10:58;4.82;;;2.50;;
66169;SDS011;66757;44.024;20.456;2023-04-25T01:13:23;3.80;;;3.00;;
66169;SDS011;66757;44.024;20.456;2023-04-25T01:15:49;3.75;;;2.45;;
66169;SDS011;66757;44.024;20.456;2023-04-25T01:18:14;4.07;;;3.00;;
66169;SDS011;66757;44.024;20.456;2023-04-25T01:20:40;5.18;;;3.10;;
66169;SDS011;66757;44.024;20.456;2023-04-25T01:23:06;4.57;;;2.58;;
66169;SDS011;66757;44.024;20.456;2023-04-25T01:25:32;5.72;;;2.83;;
66169;SDS011;66757;44.024;20.456;2023-04-25T01:27:58;3.33;;;2.65;;
66169;SDS011;66757;44.024;20.456;2023-04-25T01:30:24;3.28;;;2.00;;
66169;SDS011;66757;44.024;20.456;2023-04-25T01:32:50;3.25;;;2.20;;
66169;SDS011;66757;44.024;20.456;2023-04-25T01:35:17;3.47;;;2.10;;
66169;SDS011;66757;44.024;20.456;2023-04-25T01:37:43;2.60;;;2.00;;
66169;SDS011;66757;44.024;20.456;2023-04-25T01:40:09;3.75;;;2.05;;
66169;SDS011;66757;44.024;20.456;2023-04-25T01:42:35;3.10;;;1.38;;
66169;SDS011;66757;44.024;20.456;2023-04-25T01:45:01;4.03;;;2.17;;
66169;SDS011;66757;44.024;20.456;2023-04-25T01:47:27;3.97;;;1.90;;
66169;SDS011;66757;44.024;20.456;2023-04-25T01:49:52;4.28;;;1.58;;
66169;SDS011;66757;44.024;20.456;2023-04-25T01:52:18;3.15;;;2.00;;
66169;SDS011;66757;44.024;20.456;2023-04-25T01:54:44;5.57;;;2.50;;
66169;SDS011;66757;44.024;20.456;2023-04-25T01:57:10;4.28;;;3.15;;
66169;SDS011;66757;44.024;20.456;2023-04-25T01:59:36;7.05;;;3.30;;
66169;SDS011;66757;44.024;20.456;2023-04-25T02:02:01;4.55;;;2.65;;
66169;SDS011;66757;44.024;20.456;2023-04-25T02:04:30;9.25;;;5.95;;
66169;SDS011;66757;44.024;20.456;2023-04-25T02:06:57;9.68;;;5.78;;
66169;SDS011;66757;44.024;20.456;2023-04-25T02:09:24;7.43;;;5.30;;
66169;SDS011;66757;44.024;20.456;2023-04-25T02:14:38;5.07;;;3.90;;
66169;SDS011;66757;44.024;20.456;2023-04-25T02:17:05;6.15;;;4.22;;
66169;SDS011;66757;44.024;20.456;2023-04-25T02:22:22;6.40;;;4.25;;
66169;SDS011;66757;44.024;20.456;2023-04-25T02:24:49;9.90;;;4.22;;
66169;SDS011;66757;44.024;20.456;2023-04-25T02:27:17;6.00;;;4.15;;
66169;SDS011;66757;44.024;20.456;2023-04-25T02:32:32;4.63;;;3.45;;
66169;SDS011;66757;44.024;20.456;2023-04-25T02:35:00;6.97;;;3.20;;
66169;SDS011;66757;44.024;20.456;2023-04-25T02:40:20;5.07;;;3.20;;
66169;SDS011;66757;44.024;20.456;2023-04-25T02:42:45;3.97;;;2.88;;
66169;SDS011;66757;44.024;20.456;2023-04-25T02:45:13;5.10;;;2.95;;
66169;SDS011;66757;44.024;20.456;2023-04-25T02:47:40;3.28;;;2.78;;
66169;SDS011;66757;44.024;20.456;2023-04-25T02:53:00;7.05;;;3.80;;
66169;SDS011;66757;44.024;20.456;2023-04-25T02:55:26;7.78;;;4.47;;
66169;SDS011;66757;44.024;20.456;2023-04-25T02:57:51;6.60;;;4.53;;
66169;SDS011;66757;44.024;20.456;2023-04-25T03:00:16;7.43;;;4.20;;
66169;SDS011;66757;44.024;20.456;2023-04-25T03:02:42;5.40;;;4.18;;
66169;SDS011;66757;44.024;20.456;2023-04-25T03:05:09;6.10;;;4.22;;
66169;SDS011;66757;44.024;20.456;2023-04-25T03:07:35;5.60;;;3.90;;
66169;SDS011;66757;44.024;20.456;2023-04-25T03:10:02;5.28;;;4.07;;
66169;SDS011;66757;44.024;20.456;2023-04-25T03:12:27;6.30;;;4.60;;
66169;SDS011;66757;44.024;20.456;2023-04-25T03:14:52;8.38;;;5.45;;
66169;SDS011;66757;44.024;20.456;2023-04-25T03:17:18;8.65;;;5.35;;
66169;SDS011;66757;44.024;20.456;2023-04-25T03:19:45;10.93;;;6.10;;
66169;SDS011;66757;44.024;20.456;2023-04-25T03:22:10;13.70;;;6.60;;
66169;SDS011;66757;44.024;20.456;2023-04-25T03:24:35;9.25;;;5.63;;
66169;SDS011;66757;44.024;20.456;2023-04-25T03:27:02;6.93;;;5.30;;
66169;SDS011;66757;44.024;20.456;2023-04-25T03:29:27;6.55;;;5.40;;
66169;SDS011;66757;44.024;20.456;2023-04-25T03:31:53;6.80;;;5.70;;
66169;SDS011;66757;44.024;20.456;2023-04-25T03:34:19;14.55;;;9.50;;
66169;SDS011;66757;44.024;20.456;2023-04-25T03:36:47;17.10;;;9.10;;
66169;SDS011;66757;44.024;20.456;2023-04-25T03:39:12;12.50;;;7.53;;
66169;SDS011;66757;44.024;20.456;2023-04-25T03:41:38;11.10;;;7.03;;
66169;SDS011;66757;44.024;20.456;2023-04-25T03:44:03;12.32;;;7.38;;
66169;SDS011;66757;44.024;20.456;2023-04-25T03:46:28;29.25;;;18.90;;
66169;SDS011;66757;44.024;20.456;2023-04-25T03:48:55;18.17;;;12.70;;
66169;SDS011;66757;44.024;20.456;2023-04-25T03:51:20;12.50;;;9.00;;
66169;SDS011;66757;44.024;20.456;2023-04-25T03:53:45;10.90;;;8.73;;
66169;SDS011;66757;44.024;20.456;2023-04-25T03:56:11;8.85;;;6.43;;
66169;SDS011;66757;44.024;20.456;2023-04-25T03:58:36;12.77;;;5.78;;
66169;SDS011;66757;44.024;20.456;2023-04-25T04:03:33;9.18;;;5.80;;
66169;SDS011;66757;44.024;20.456;2023-04-25T04:06:00;5.97;;;5.20;;
66169;SDS011;66757;44.024;20.456;2023-04-25T04:08:25;7.88;;;5.22;;
66169;SDS011;66757;44.024;20.456;2023-04-25T04:10:50;5.53;;;4.55;;
66169;SDS011;66757;44.024;20.456;2023-04-25T04:13:16;5.30;;;4.25;;
66169;SDS011;66757;44.024;20.456;2023-04-25T04:15:41;6.80;;;4.75;;
66169;SDS011;66757;44.024;20.456;2023-04-25T04:18:06;7.68;;;5.10;;
66169;SDS011;66757;44.024;20.456;2023-04-25T04:20:33;6.95;;;4.68;;
66169;SDS011;66757;44.024;20.456;2023-04-25T04:22:58;7.78;;;4.85;;
66169;SDS011;66757;44.024;20.456;2023-04-25T04:25:24;3.85;;;3.20;;
66169;SDS011;66757;44.024;20.456;2023-04-25T04:27:49;4.97;;;2.72;;
66169;SDS011;66757;44.024;20.456;2023-04-25T04:30:16;4.07;;;1.85;;
66169;SDS011;66757;44.024;20.456;2023-04-25T04:32:42;3.10;;;1.60;;
66169;SDS011;66757;44.024;20.456;2023-04-25T04:35:08;2.92;;;1.20;;
66169;SDS011;66757;44.024;20.456;2023-04-25T04:37:34;3.05;;;2.20;;
66169;SDS011;66757;44.024;20.456;2023-04-25T04:39:59;12.05;;;5.80;;
66169;SDS011;66757;44.024;20.456;2023-04-25T04:42:24;8.13;;;5.55;;
66169;SDS011;66757;44.024;20.456;2023-04-25T04:44:51;9.35;;;5.70;;
66169;SDS011;66757;44.024;20.456;2023-04-25T04:47:19;7.93;;;6.72;;
66169;SDS011;66757;44.024;20.456;2023-04-25T04:49:45;12.20;;;6.85;;
66169;SDS011;66757;44.024;20.456;2023-04-25T04:52:10;9.70;;;6.18;;
66169;SDS011;66757;44.024;20.456;2023-04-25T04:54:36;8.68;;;6.60;;
66169;SDS011;66757;44.024;20.456;2023-04-25T04:57:01;12.65;;;7.65;;
66169;SDS011;66757;44.024;20.456;2023-04-25T04:59:26;9.45;;;7.13;;
66169;SDS011;66757;44.024;20.456;2023-04-25T05:01:52;14.20;;;9.63;;
66169;SDS011;66757;44.024;20.456;2023-04-25T05:04:17;14.77;;;11.57;;
66169;SDS011;66757;44.024;20.456;2023-04-25T05:06:43;15.05;;;11.77;;
66169;SDS011;66757;44.024;20.456;2023-04-25T05:09:09;18.02;;;11.75;;
66169;SDS011;66757;44.024;20.456;2023-04-25T05:11:34;13.48;;;10.68;;
66169;SDS011;66757;44.024;20.456;2023-04-25T05:14:00;14.73;;;10.60;;
66169;SDS011;66757;44.024;20.456;2023-04-25T05:16:25;13.93;;;10.75;;
66169;SDS011;66757;44.024;20.456;2023-04-25T05:18:50;10.18;;;7.95;;
66169;SDS011;66757;44.024;20.456;2023-04-25T05:21:16;4.47;;;2.08;;
66169;SDS011;66757;44.024;20.456;2023-04-25T05:23:41;3.88;;;3.17;;
66169;SDS011;66757;44.024;20.456;2023-04-25T05:26:07;3.80;;;2.90;;
66169;SDS011;66757;44.024;20.456;2023-04-25T05:28:38;4.88;;;2.17;;
66169;SDS011;66757;44.024;20.456;2023-04-25T05:31:05;4.43;;;0.40;;
66169;SDS011;66757;44.024;20.456;2023-04-25T05:33:31;3.33;;;0.40;;
66169;SDS011;66757;44.024;20.456;2023-04-25T05:35:56;2.05;;;0.20;;
66169;SDS011;66757;44.024;20.456;2023-04-25T05:38:21;0.82;;;0.30;;
66169;SDS011;66757;44.024;20.456;2023-04-25T05:40:47;1.67;;;0.60;;
66169;SDS011;66757;44.024;20.456;2023-04-25T05:43:12;3.20;;;0.68;;
66169;SDS011;66757;44.024;20.456;2023-04-25T05:45:37;2.95;;;2.10;;
66169;SDS011;66757;44.024;20.456;2023-04-25T05:48:02;6.07;;;3.08;;
66169;SDS011;66757;44.024;20.456;2023-04-25T05:50:28;10.23;;;4.80;;
66169;SDS011;66757;44.024;20.456;2023-04-25T05:52:53;9.88;;;5.78;;
66169;SDS011;66757;44.024;20.456;2023-04-25T05:55:18;3.83;;;1.75;;
66169;SDS011;66757;44.024;20.456;2023-04-25T05:57:44;7.88;;;3.75;;
66169;SDS011;66757;44.024;20.456;2023-04-25T06:00:11;9.88;;;4.32;;
66169;SDS011;66757;44.024;20.456;2023-04-25T06:02:36;16.75;;;8.73;;
66169;SDS011;66757;44.024;20.456;2023-04-25T06:05:02;21.48;;;12.20;;
66169;SDS011;66757;44.024;20.456;2023-04-25T06:07:30;12.02;;;7.28;;
66169;SDS011;66757;44.024;20.456;2023-04-25T06:09:56;10.13;;;4.60;;
66169;SDS011;66757;44.024;20.456;2023-04-25T06:12:23;7.05;;;3.63;;
66169;SDS011;66757;44.024;20.456;2023-04-25T06:14:48;9.05;;;5.28;;
66169;SDS011;66757;44.024;20.456;2023-04-25T06:17:14;2.35;;;1.70;;
66169;SDS011;66757;44.024;20.456;2023-04-25T06:19:39;3.47;;;2.03;;
66169;SDS011;66757;44.024;20.456;2023-04-25T06:22:04;5.32;;;3.63;;
66169;SDS011;66757;44.024;20.456;2023-04-25T06:24:30;11.43;;;2.47;;
66169;SDS011;66757;44.024;20.456;2023-04-25T06:26:55;4.50;;;2.50;;
66169;SDS011;66757;44.024;20.456;2023-04-25T06:29:21;3.67;;;2.20;;
66169;SDS011;66757;44.024;20.456;2023-04-25T06:31:47;5.40;;;3.45;;
66169;SDS011;66757;44.024;20.456;2023-04-25T06:34:13;5.18;;;3.53;;
66169;SDS011;66757;44.024;20.456;2023-04-25T06:36:39;2.67;;;1.92;;
66169;SDS011;66757;44.024;20.456;2023-04-25T06:39:04;3.40;;;1.80;;
66169;SDS011;66757;44.024;20.456;2023-04-25T06:41:29;1.45;;;0.70;;
66169;SDS011;66757;44.024;20.456;2023-04-25T06:43:55;3.35;;;1.85;;
66169;SDS011;66757;44.024;20.456;2023-04-25T06:46:20;2.78;;;2.33;;
66169;SDS011;66757;44.024;20.456;2023-04-25T06:48:45;4.32;;;1.65;;
66169;SDS011;66757;44.024;20.456;2023-04-25T06:51:10;3.30;;;1.90;;
66169;SDS011;66757;44.024;20.456;2023-04-25T06:53:38;3.20;;;1.55;;
66169;SDS011;66757;44.024;20.456;2023-04-25T06:56:03;7.38;;;2.50;;
66169;SDS011;66757;44.024;20.456;2023-04-25T06:58:28;1.58;;;0.57;;
66169;SDS011;66757;44.024;20.456;2023-04-25T07:00:54;1.67;;;0.50;;
66169;SDS011;66757;44.024;20.456;2023-04-25T07:03:19;2.00;;;0.90;;
66169;SDS011;66757;44.024;20.456;2023-04-25T07:05:44;4.07;;;2.08;;
66169;SDS011;66757;44.024;20.456;2023-04-25T07:08:12;2.00;;;1.15;;
66169;SDS011;66757;44.024;20.456;2023-04-25T07:10:38;2.70;;;0.73;;
66169;SDS011;66757;44.024;20.456;2023-04-25T07:13:05;1.75;;;0.60;;
66169;SDS011;66757;44.024;20.456;2023-04-25T07:15:31;2.58;;;1.02;;
66169;SDS011;66757;44.024;20.456;2023-04-25T07:17:58;3.78;;;1.92;;
66169;SDS011;66757;44.024;20.456;2023-04-25T07:20:24;2.38;;;1.00;;
66169;SDS011;66757;44.024;20.456;2023-04-25T07:22:49;4.13;;;1.80;;
66169;SDS011;66757;44.024;20.456;2023-04-25T07:25:16;6.50;;;4.30;;
66169;SDS011;66757;44.024;20.456;2023-04-25T07:27:42;4.07;;;2.35;;
66169;SDS011;66757;44.024;20.456;2023-04-25T07:30:08;3.13;;;1.45;;
66169;SDS011;66757;44.024;20.456;2023-04-25T07:32:34;3.13;;;1.45;;
66169;SDS011;66757;44.024;20.456;2023-04-25T07:35:00;12.00;;;5.35;;
66169;SDS011;66757;44.024;20.456;2023-04-25T07:37:28;8.43;;;4.80;;
66169;SDS011;66757;44.024;20.456;2023-04-25T07:39:53;5.53;;;3.72;;
66169;SDS011;66757;44.024;20.456;2023-04-25T07:42:20;4.88;;;2.72;;
66169;SDS011;66757;44.024;20.456;2023-04-25T07:44:46;8.30;;;2.70;;
66169;SDS011;66757;44.024;20.456;2023-04-25T07:47:13;9.93;;;3.95;;
66169;SDS011;66757;44.024;20.456;2023-04-25T07:49:38;5.85;;;3.90;;
66169;SDS011;66757;44.024;20.456;2023-04-25T07:52:04;6.43;;;3.97;;
66169;SDS011;66757;44.024;20.456;2023-04-25T07:54:32;2.55;;;1.73;;
66169;SDS011;66757;44.024;20.456;2023-04-25T07:56:57;7.15;;;4.63;;
66169;SDS011;66757;44.024;20.456;2023-04-25T07:59:22;6.28;;;4.55;;
66169;SDS011;66757;44.024;20.456;2023-04-25T08:01:48;2.40;;;1.75;;
66169;SDS011;66757;44.024;20.456;2023-04-25T08:04:15;4.10;;;2.75;;
66169;SDS011;66757;44.024;20.456;2023-04-25T08:06:42;6.63;;;2.85;;
66169;SDS011;66757;44.024;20.456;2023-04-25T08:12:01;5.90;;;3.10;;
66169;SDS011;66757;44.024;20.456;2023-04-25T08:14:28;2.80;;;1.77;;
66169;SDS011;66757;44.024;20.456;2023-04-25T08:16:56;10.10;;;4.53;;
66169;SDS011;66757;44.024;20.456;2023-04-25T08:19:21;7.18;;;3.00;;
66169;SDS011;66757;44.024;20.456;2023-04-25T08:21:46;6.25;;;3.35;;
66169;SDS011;66757;44.024;20.456;2023-04-25T08:24:12;33.75;;;15.80;;
66169;SDS011;66757;44.024;20.456;2023-04-25T08:26:37;5.32;;;3.15;;
66169;SDS011;66757;44.024;20.456;2023-04-25T08:29:03;8.30;;;4.22;;
66169;SDS011;66757;44.024;20.456;2023-04-25T08:31:29;11.85;;;5.65;;
66169;SDS011;66757;44.024;20.456;2023-04-25T08:33:56;9.00;;;4.90;;
66169;SDS011;66757;44.024;20.456;2023-04-25T08:36:21;4.45;;;2.53;;
66169;SDS011;66757;44.024;20.456;2023-04-25T08:38:49;4.63;;;1.35;;
66169;SDS011;66757;44.024;20.456;2023-04-25T08:41:14;5.22;;;2.35;;
66169;SDS011;66757;44.024;20.456;2023-04-25T08:43:41;9.38;;;2.75;;
66169;SDS011;66757;44.024;20.456;2023-04-25T08:46:08;3.58;;;2.33;;
66169;SDS011;66757;44.024;20.456;2023-04-25T08:48:34;2.47;;;0.65;;
66169;SDS011;66757;44.024;20.456;2023-04-25T08:51:01;24.75;;;3.00;;
66169;SDS011;66757;44.024;20.456;2023-04-25T08:53:28;6.25;;;3.08;;
66169;SDS011;66757;44.024;20.456;2023-04-25T08:55:54;4.78;;;2.55;;
66169;SDS011;66757;44.024;20.456;2023-04-25T08:58:20;20.60;;;7.88;;
66169;SDS011;66757;44.024;20.456;2023-04-25T09:00:46;18.77;;;5.65;;
66169;SDS011;66757;44.024;20.456;2023-04-25T09:03:12;6.22;;;3.55;;
66169;SDS011;66757;44.024;20.456;2023-04-25T09:05:39;7.47;;;3.55;;
66169;SDS011;66757;44.024;20.456;2023-04-25T09:08:05;4.75;;;2.03;;
66169;SDS011;66757;44.024;20.456;2023-04-25T09:10:31;9.30;;;3.60;;
66169;SDS011;66757;44.024;20.456;2023-04-25T09:15:32;7.93;;;1.73;;
66169;SDS011;66757;44.024;20.456;2023-04-25T09:17:58;2.03;;;1.20;;
66169;SDS011;66757;44.024;20.456;2023-04-25T09:23:16;10.55;;;5.85;;
66169;SDS011;66757;44.024;20.456;2023-04-25T09:25:44;13.07;;;6.07;;
66169;SDS011;66757;44.024;20.456;2023-04-25T09:28:12;9.25;;;3.75;;
66169;SDS011;66757;44.024;20.456;2023-04-25T09:33:29;3.67;;;1.10;;
66169;SDS011;66757;44.024;20.456;2023-04-25T09:36:01;2.83;;;0.65;;
66169;SDS011;66757;44.024;20.456;2023-04-25T09:38:26;2.10;;;0.45;;
66169;SDS011;66757;44.024;20.456;2023-04-25T09:40:51;2.70;;;0.80;;
66169;SDS011;66757;44.024;20.456;2023-04-25T09:43:21;14.60;;;2.05;;
66169;SDS011;66757;44.024;20.456;2023-04-25T09:45:46;2.13;;;0.50;;
66169;SDS011;66757;44.024;20.456;2023-04-25T09:48:22;2.38;;;0.95;;
66169;SDS011;66757;44.024;20.456;2023-04-25T09:51:10;2.55;;;0.80;;
66169;SDS011;66757;44.024;20.456;2023-04-25T09:53:35;3.47;;;1.98;;
66169;SDS011;66757;44.024;20.456;2023-04-25T09:56:02;8.65;;;5.47;;
66169;SDS011;66757;44.024;20.456;2023-04-25T09:58:29;9.15;;;2.17;;
66169;SDS011;66757;44.024;20.456;2023-04-25T10:00:55;4.53;;;1.02;;
66169;SDS011;66757;44.024;20.456;2023-04-25T10:03:25;13.02;;;5.47;;
66169;SDS011;66757;44.024;20.456;2023-04-25T10:05:51;4.95;;;2.55;;
66169;SDS011;66757;44.024;20.456;2023-04-25T10:08:17;6.13;;;2.63;;
66169;SDS011;66757;44.024;20.456;2023-04-25T10:10:43;2.90;;;1.25;;
66169;SDS011;66757;44.024;20.456;2023-04-25T10:13:09;1.77;;;0.52;;
66169;SDS011;66757;44.024;20.456;2023-04-25T10:15:36;2.83;;;1.23;;
66169;SDS011;66757;44.024;20.456;2023-04-25T10:18:02;2.97;;;1.00;;
66169;SDS011;66757;44.024;20.456;2023-04-25T10:20:28;2.05;;;0.45;;
66169;SDS011;66757;44.024;20.456;2023-04-25T10:22:55;5.15;;;2.83;;
66169;SDS011;66757;44.024;20.456;2023-04-25T10:25:23;11.73;;;1.80;;
66169;SDS011;66757;44.024;20.456;2023-04-25T10:27:50;3.88;;;0.60;;
66169;SDS011;66757;44.024;20.456;2023-04-25T10:30:16;1.85;;;0.88;;
66169;SDS011;66757;44.024;20.456;2023-04-25T10:32:42;1.60;;;0.73;;
66169;SDS011;66757;44.024;20.456;2023-04-25T10:35:22;4.18;;;1.55;;
66169;SDS011;66757;44.024;20.456;2023-04-25T10:37:58;4.25;;;1.10;;
66169;SDS011;66757;44.024;20.456;2023-04-25T10:40:24;2.17;;;0.77;;
66169;SDS011;66757;44.024;20.456;2023-04-25T10:42:51;4.13;;;0.98;;
66169;SDS011;66757;44.024;20.456;2023-04-25T10:45:16;2.20;;;0.93;;
66169;SDS011;66757;44.024;20.456;2023-04-25T10:47:45;8.63;;;1.95;;
66169;SDS011;66757;44.024;20.456;2023-04-25T10:50:10;6.30;;;2.20;;
66169;SDS011;66757;44.024;20.456;2023-04-25T10:52:36;2.65;;;1.15;;
66169;SDS011;66757;44.024;20.456;2023-04-25T10:55:03;1.95;;;0.60;;
66169;SDS011;66757;44.024;20.456;2023-04-25T11:02:31;1.45;;;0.90;;
66169;SDS011;66757;44.024;20.456;2023-04-25T11:04:56;4.10;;;1.10;;
66169;SDS011;66757;44.024;20.456;2023-04-25T11:07:23;1.60;;;1.50;;
66169;SDS011;66757;44.024;20.456;2023-04-25T11:09:51;6.60;;;2.88;;
66169;SDS011;66757;44.024;20.456;2023-04-25T11:12:17;3.53;;;1.17;;
66169;SDS011;66757;44.024;20.456;2023-04-25T11:14:42;2.90;;;1.80;;
66169;SDS011;66757;44.024;20.456;2023-04-25T11:17:09;3.75;;;1.55;;
66169;SDS011;66757;44.024;20.456;2023-04-25T11:19:35;4.20;;;0.80;;
66169;SDS011;66757;44.024;20.456;2023-04-25T11:22:01;1.98;;;0.95;;
66169;SDS011;66757;44.024;20.456;2023-04-25T11:24:30;1.63;;;1.05;;
66169;SDS011;66757;44.024;20.456;2023-04-25T11:26:56;4.75;;;1.33;;
66169;SDS011;66757;44.024;20.456;2023-04-25T11:29:23;3.63;;;2.78;;
66169;SDS011;66757;44.024;20.456;2023-04-25T11:31:49;2.22;;;1.45;;
66169;SDS011;66757;44.024;20.456;2023-04-25T11:34:20;3.08;;;1.10;;
66169;SDS011;66757;44.024;20.456;2023-04-25T11:36:45;4.90;;;1.38;;
66169;SDS011;66757;44.024;20.456;2023-04-25T11:39:12;2.30;;;0.93;;
66169;SDS011;66757;44.024;20.456;2023-04-25T11:41:40;1.20;;;0.68;;
66169;SDS011;66757;44.024;20.456;2023-04-25T11:44:06;4.25;;;1.05;;
66169;SDS011;66757;44.024;20.456;2023-04-25T11:46:35;0.93;;;0.80;;
66169;SDS011;66757;44.024;20.456;2023-04-25T11:49:00;2.60;;;1.17;;
66169;SDS011;66757;44.024;20.456;2023-04-25T11:51:28;4.90;;;1.55;;
66169;SDS011;66757;44.024;20.456;2023-04-25T11:53:53;3.25;;;1.90;;
66169;SDS011;66757;44.024;20.456;2023-04-25T11:56:19;3.90;;;1.77;;
66169;SDS011;66757;44.024;20.456;2023-04-25T11:58:58;2.33;;;1.80;;
66169;SDS011;66757;44.024;20.456;2023-04-25T12:01:27;2.25;;;1.40;;
66169;SDS011;66757;44.024;20.456;2023-04-25T12:03:52;1.17;;;0.82;;
66169;SDS011;66757;44.024;20.456;2023-04-25T12:06:18;5.25;;;2.38;;
66169;SDS011;66757;44.024;20.456;2023-04-25T12:11:29;2.28;;;0.88;;
66169;SDS011;66757;44.024;20.456;2023-04-25T12:13:55;12.93;;;2.63;;
66169;SDS011;66757;44.024;20.456;2023-04-25T12:16:21;4.07;;;1.13;;
66169;SDS011;66757;44.024;20.456;2023-04-25T12:18:46;4.47;;;2.78;;
66169;SDS011;66757;44.024;20.456;2023-04-25T12:21:11;2.70;;;1.88;;
66169;SDS011;66757;44.024;20.456;2023-04-25T12:23:38;11.18;;;4.10;;
66169;SDS011;66757;44.024;20.456;2023-04-25T12:26:03;6.53;;;2.97;;
66169;SDS011;66757;44.024;20.456;2023-04-25T12:28:29;3.00;;;2.20;;
66169;SDS011;66757;44.024;20.456;2023-04-25T12:31:04;4.30;;;2.10;;
66169;SDS011;66757;44.024;20.456;2023-04-25T12:33:31;1.92;;;1.00;;
66169;SDS011;66757;44.024;20.456;2023-04-25T12:35:57;3.83;;;1.70;;
66169;SDS011;66757;44.024;20.456;2023-04-25T12:40:52;10.75;;;4.25;;
66169;SDS011;66757;44.024;20.456;2023-04-25T12:43:18;3.70;;;1.45;;
66169;SDS011;66757;44.024;20.456;2023-04-25T12:45:44;3.42;;;3.13;;
66169;SDS011;66757;44.024;20.456;2023-04-25T12:48:09;4.50;;;1.40;;
66169;SDS011;66757;44.024;20.456;2023-04-25T12:50:35;3.58;;;2.40;;
66169;SDS011;66757;44.024;20.456;2023-04-25T12:53:01;7.20;;;2.97;;
66169;SDS011;66757;44.024;20.456;2023-04-25T12:55:26;25.45;;;4.20;;
66169;SDS011;66757;44.024;20.456;2023-04-25T12:57:52;5.05;;;2.83;;
66169;SDS011;66757;44.024;20.456;2023-04-25T13:00:17;7.85;;;3.53;;
66169;SDS011;66757;44.024;20.456;2023-04-25T13:02:44;6.50;;;3.08;;
66169;SDS011;66757;44.024;20.456;2023-04-25T13:05:11;5.35;;;2.47;;
66169;SDS011;66757;44.024;20.456;2023-04-25T13:07:36;5.30;;;3.72;;
66169;SDS011;66757;44.024;20.456;2023-04-25T13:10:01;6.03;;;4.25;;
66169;SDS011;66757;44.024;20.456;2023-04-25T13:12:28;5.40;;;3.80;;
66169;SDS011;66757;44.024;20.456;2023-04-25T13:14:53;4.72;;;3.40;;
66169;SDS011;66757;44.024;20.456;2023-04-25T13:17:18;8.40;;;2.85;;
66169;SDS011;66757;44.024;20.456;2023-04-25T13:19:45;3.05;;;2.72;;
66169;SDS011;66757;44.024;20.456;2023-04-25T13:22:11;7.38;;;4.95;;
66169;SDS011;66757;44.024;20.456;2023-04-25T13:24:37;8.80;;;4.20;;
66169;SDS011;66757;44.024;20.456;2023-04-25T13:27:02;3.80;;;2.20;;
66169;SDS011;66757;44.024;20.456;2023-04-25T13:29:29;4.78;;;1.95;;
66169;SDS011;66757;44.024;20.456;2023-04-25T13:31:54;4.30;;;3.60;;
66169;SDS011;66757;44.024;20.456;2023-04-25T13:34:19;3.33;;;2.67;;
66169;SDS011;66757;44.024;20.456;2023-04-25T13:36:45;2.35;;;1.48;;
66169;SDS011;66757;44.024;20.456;2023-04-25T13:39:11;4.40;;;2.00;;
66169;SDS011;66757;44.024;20.456;2023-04-25T13:41:37;3.45;;;1.98;;
66169;SDS011;66757;44.024;20.456;2023-04-25T13:44:02;7.95;;;3.35;;
66169;SDS011;66757;44.024;20.456;2023-04-25T13:46:28;11.23;;;3.00;;
66169;SDS011;66757;44.024;20.456;2023-04-25T13:48:54;7.10;;;4.30;;
66169;SDS011;66757;44.024;20.456;2023-04-25T13:51:19;4.38;;;2.30;;
66169;SDS011;66757;44.024;20.456;2023-04-25T13:53:45;4.32;;;3.92;;
66169;SDS011;66757;44.024;20.456;2023-04-25T13:56:11;2.95;;;2.65;;
66169;SDS011;66757;44.024;20.456;2023-04-25T13:58:36;5.90;;;4.18;;
66169;SDS011;66757;44.024;20.456;2023-04-25T14:01:02;7.50;;;4.22;;
66169;SDS011;66757;44.024;20.456;2023-04-25T14:03:28;6.75;;;5.00;;
66169;SDS011;66757;44.024;20.456;2023-04-25T14:05:54;7.63;;;4.13;;
66169;SDS011;66757;44.024;20.456;2023-04-25T14:08:20;6.60;;;3.90;;
66169;SDS011;66757;44.024;20.456;2023-04-25T14:10:45;4.88;;;2.83;;
66169;SDS011;66757;44.024;20.456;2023-04-25T14:13:11;6.32;;;4.82;;
66169;SDS011;66757;44.024;20.456;2023-04-25T14:15:37;14.80;;;6.20;;
66169;SDS011;66757;44.024;20.456;2023-04-25T14:18:02;4.75;;;3.15;;
66169;SDS011;66757;44.024;20.456;2023-04-25T14:20:29;7.82;;;5.47;;
66169;SDS011;66757;44.024;20.456;2023-04-25T14:22:54;7.50;;;4.90;;
66169;SDS011;66757;44.024;20.456;2023-04-25T14:25:21;8.57;;;3.20;;
66169;SDS011;66757;44.024;20.456;2023-04-25T14:27:46;4.45;;;2.67;;
66169;SDS011;66757;44.024;20.456;2023-04-25T14:30:15;3.63;;;2.35;;
66169;SDS011;66757;44.024;20.456;2023-04-25T14:32:40;6.30;;;3.72;;
66169;SDS011;66757;44.024;20.456;2023-04-25T14:35:06;9.50;;;4.85;;
66169;SDS011;66757;44.024;20.456;2023-04-25T14:37:32;9.60;;;4.68;;
66169;SDS011;66757;44.024;20.456;2023-04-25T14:39:57;6.95;;;4.32;;
66169;SDS011;66757;44.024;20.456;2023-04-25T14:42:22;15.13;;;5.10;;
66169;SDS011;66757;44.024;20.456;2023-04-25T14:44:48;10.25;;;5.75;;
66169;SDS011;66757;44.024;20.456;2023-04-25T14:47:13;3.67;;;2.38;;
66169;SDS011;66757;44.024;20.456;2023-04-25T14:49:38;5.82;;;3.60;;
66169;SDS011;66757;44.024;20.456;2023-04-25T14:52:04;8.52;;;2.67;;
66169;SDS011;66757;44.024;20.456;2023-04-25T14:54:29;3.55;;;1.77;;
66169;SDS011;66757;44.024;20.456;2023-04-25T14:56:54;10.73;;;5.63;;
66169;SDS011;66757;44.024;20.456;2023-04-25T14:59:20;3.33;;;2.33;;
66169;SDS011;66757;44.024;20.456;2023-04-25T15:01:45;6.22;;;3.13;;
66169;SDS011;66757;44.024;20.456;2023-04-25T15:04:11;9.18;;;7.18;;
66169;SDS011;66757;44.024;20.456;2023-04-25T15:06:37;5.03;;;3.28;;
66169;SDS011;66757;44.024;20.456;2023-04-25T15:09:04;27.90;;;17.67;;